Time;durP1;ratioP1;P1;durP2;ratioP2;P2;SDS_P1;SDS_P2;PMS_P1;PMS_P2;Temp;Humidity;BMP_temperature;BMP_pressure;BME280_temperature;BME280_humidity;BME280_pressure;Samples;Min_cycle;Max_cycle;Signal;HPM_P1;HPM_P2
2021/04/05 00:01:39;;;;;;;19.27;7.40;;;9.70;72.80;;;;;;5103305;22;20048;-71
2021/04/05 00:04:07;;;;;;;23.50;9.00;;;9.70;73.00;;;;;;5104539;22;20139;-71
2021/04/05 00:06:33;;;;;;;19.45;8.38;;;9.70;73.20;;;;;;5103548;22;20144;-71
2021/04/05 00:08:58;;;;;;;23.58;8.45;;;9.60;73.60;;;;;;5103269;22;20076;-71
2021/04/05 00:11:24;;;;;;;20.10;8.70;;;9.60;73.70;;;;;;5103518;22;20063;-73
2021/04/05 00:13:50;;;;;;;20.27;8.43;;;9.60;74.00;;;;;;5103308;22;20055;-71
2021/04/05 00:16:21;;;;;;;22.23;8.75;;;9.60;74.20;;;;;;5086997;22;20047;-71
2021/04/05 00:18:48;;;;;;;21.50;8.23;;;9.60;74.40;;;;;;5103397;22;20086;-72
2021/04/05 00:21:16;;;;;;;30.08;9.38;;;9.50;74.60;;;;;;5102731;22;20453;-72
2021/04/05 00:23:43;;;;;;;19.10;8.48;;;9.50;74.70;;;;;;5106696;22;20092;-71
2021/04/05 00:26:08;;;;;;;21.05;9.40;;;9.50;74.70;;;;;;5102930;22;20447;-71
2021/04/05 00:28:35;;;;;;;24.73;8.50;;;9.50;75.10;;;;;;5103065;22;20043;-71
2021/04/05 00:31:02;;;;;;;24.65;8.88;;;9.50;75.30;;;;;;5103484;22;20071;-71
2021/04/05 00:33:28;;;;;;;19.63;8.93;;;9.50;75.50;;;;;;5104873;22;20040;-73
2021/04/05 00:35:53;;;;;;;21.92;9.27;;;9.40;75.80;;;;;;5095631;28;20046;-73
2021/04/05 00:38:20;;;;;;;20.17;8.23;;;9.40;75.70;;;;;;5103410;22;20051;-74
2021/04/05 00:40:55;;;;;;;22.73;9.07;;;9.40;75.90;;;;;;5082739;22;20051;-71
2021/04/05 00:43:21;;;;;;;23.17;8.88;;;9.40;76.00;;;;;;5102944;22;20059;-74
2021/04/05 00:48:14;;;;;;;24.42;10.00;;;9.40;76.20;;;;;;5104622;22;20055;-72
2021/04/05 01:07:56;;;;;;;22.10;9.63;;;9.20;77.10;;;;;;5104020;22;20052;-71
2021/04/05 01:12:49;;;;;;;21.75;8.60;;;9.10;77.70;;;;;;5104445;22;20132;-71
2021/04/05 01:15:16;;;;;;;23.38;8.63;;;9.10;78.00;;;;;;5104270;22;20060;-71
2021/04/05 01:20:12;;;;;;;25.88;8.90;;;9.10;77.70;;;;;;5104196;22;20532;-71
2021/04/05 01:27:33;;;;;;;26.88;9.15;;;9.10;77.50;;;;;;5064360;22;20037;-75
2021/04/05 01:29:59;;;;;;;16.70;7.95;;;9.10;77.50;;;;;;5043334;23;20061;-73
2021/04/05 01:32:25;;;;;;;22.42;7.85;;;9.10;77.20;;;;;;5103016;22;20541;-73
2021/04/05 01:34:50;;;;;;;31.45;10.32;;;9.10;76.90;;;;;;5102155;22;20083;-69
2021/04/05 01:37:16;;;;;;;20.58;8.60;;;9.10;76.70;;;;;;5102229;22;20048;-69
2021/04/05 01:39:42;;;;;;;20.63;8.38;;;9.10;76.60;;;;;;5101904;22;20400;-71
2021/04/05 01:42:08;;;;;;;24.50;9.15;;;9.10;76.50;;;;;;5101807;22;20059;-71
2021/04/05 01:44:39;;;;;;;26.90;9.40;;;9.10;76.50;;;;;;5103357;22;20052;-71
2021/04/05 01:51:56;;;;;;;19.10;8.48;;;9.00;76.80;;;;;;5083421;22;20097;-71
2021/04/05 01:54:23;;;;;;;19.85;9.55;;;9.00;76.40;;;;;;5022165;23;20136;-72
2021/04/05 01:56:49;;;;;;;19.58;9.23;;;8.90;76.50;;;;;;5057187;23;20049;-71
2021/04/05 01:59:17;;;;;;;22.88;9.57;;;8.90;76.50;;;;;;5084258;23;20079;-71
2021/04/05 02:01:43;;;;;;;22.70;9.75;;;8.90;76.60;;;;;;5101508;22;20052;-71
2021/04/05 02:04:09;;;;;;;23.98;9.80;;;8.80;76.50;;;;;;5101947;22;20051;-71
2021/04/05 02:09:04;;;;;;;22.45;9.35;;;8.70;76.30;;;;;;5122744;22;20083;-71
2021/04/05 02:14:01;;;;;;;21.65;9.43;;;8.70;76.10;;;;;;5123291;22;20039;-71
2021/04/05 02:41:04;;;;;;;27.80;10.93;;;8.30;76.90;;;;;;5120922;22;20392;-71
2021/04/05 02:43:31;;;;;;;31.90;10.88;;;8.30;76.90;;;;;;5122789;22;20067;-71
2021/04/05 02:45:57;;;;;;;22.88;10.27;;;8.20;77.00;;;;;;5100385;22;20114;-71
2021/04/05 02:48:24;;;;;;;28.45;10.50;;;8.20;77.20;;;;;;5101161;22;20056;-71
2021/04/05 02:55:43;;;;;;;29.67;11.13;;;8.10;77.50;;;;;;5101406;22;20151;-71
2021/04/05 02:58:09;;;;;;;20.27;10.32;;;8.10;77.80;;;;;;5098520;23;20143;-71
2021/04/05 03:00:36;;;;;;;25.25;11.13;;;8.10;78.00;;;;;;5100505;22;20059;-71
2021/04/05 03:07:55;;;;;;;21.10;10.30;;;8.00;78.40;;;;;;5123027;22;20104;-72
2021/04/05 03:15:24;;;;;;;21.20;10.70;;;7.80;79.10;;;;;;5122263;22;20059;-71
2021/04/05 03:17:56;;;;;;;24.33;11.43;;;7.70;79.20;;;;;;5100885;22;20044;-71
2021/04/05 03:27:49;;;;;;;27.15;11.00;;;7.80;79.50;;;;;;5126730;22;20039;-72
2021/04/05 03:30:32;;;;;;;31.42;11.57;;;7.70;79.60;;;;;;5104176;22;20077;-72
2021/04/05 03:33:08;;;;;;;27.73;10.90;;;7.80;79.70;;;;;;5100195;22;20055;-73
2021/04/05 03:35:39;;;;;;;28.42;11.70;;;7.70;79.80;;;;;;5084442;22;20091;-71
2021/04/05 03:38:05;;;;;;;26.58;11.27;;;7.70;80.00;;;;;;5102534;22;20048;-70
2021/04/05 03:40:31;;;;;;;28.80;11.95;;;7.70;80.00;;;;;;5103717;22;20055;-69
2021/04/05 03:43:12;;;;;;;25.67;12.35;;;7.70;80.00;;;;;;5126555;22;20052;-72
2021/04/05 03:45:47;;;;;;;27.25;10.98;;;7.80;80.00;;;;;;5104117;22;20055;-73
2021/04/05 03:48:19;;;;;;;22.58;11.27;;;7.70;79.80;;;;;;5126773;22;20119;-73
2021/04/05 03:53:34;;;;;;;21.33;11.77;;;7.60;80.70;;;;;;5125404;22;20527;-71
2021/04/05 03:56:05;;;;;;;26.95;11.23;;;7.60;80.40;;;;;;5103652;22;20638;-72
2021/04/05 03:58:32;;;;;;;27.60;11.02;;;7.40;80.70;;;;;;5104071;22;20060;-73
2021/04/05 04:01:05;;;;;;;23.65;11.55;;;7.40;81.00;;;;;;5126127;22;20043;-72
2021/04/05 04:03:44;;;;;;;26.83;11.85;;;7.40;81.10;;;;;;5104616;22;20146;-73
2021/04/05 04:06:04;;;;;;;26.25;12.20;;;7.30;81.30;;;;;;5125680;22;20059;-73
2021/04/05 04:20:46;;;;;;;29.85;13.18;;;7.10;82.70;;;;;;5105389;22;20056;-73
2021/04/05 04:23:14;;;;;;;30.50;12.40;;;7.10;82.50;;;;;;5104901;22;20055;-73
2021/04/05 04:28:06;;;;;;;24.25;11.90;;;7.10;82.70;;;;;;5104953;22;20043;-73
2021/04/05 04:30:32;;;;;;;31.83;13.52;;;7.10;82.90;;;;;;5104522;22;20097;-72
2021/04/05 04:33:06;;;;;;;28.83;13.30;;;7.10;83.10;;;;;;5102423;22;20052;-73
2021/04/05 04:50:20;;;;;;;25.35;13.65;;;7.00;84.10;;;;;;5027097;22;20566;-72
2021/04/05 04:52:47;;;;;;;29.02;14.75;;;7.00;84.30;;;;;;5063569;23;20064;-72
2021/04/05 05:00:06;;;;;;;30.13;14.30;;;7.00;84.60;;;;;;5104125;22;20086;-72
2021/04/05 05:07:27;;;;;;;27.63;14.38;;;7.00;85.10;;;;;;5065327;22;20144;-71
2021/04/05 05:09:55;;;;;;;37.15;14.65;;;7.00;85.20;;;;;;5102257;22;20151;-72
2021/04/05 05:12:21;;;;;;;31.67;15.77;;;6.90;85.40;;;;;;5103455;22;20060;-71
2021/04/05 05:14:48;;;;;;;32.88;14.77;;;7.00;85.80;;;;;;5103237;22;20113;-72
2021/04/05 05:17:16;;;;;;;28.98;15.32;;;7.00;85.90;;;;;;5101698;22;20052;-72
2021/04/05 05:19:44;;;;;;;32.08;14.48;;;7.00;86.10;;;;;;5101996;22;20060;-71
2021/04/05 05:22:13;;;;;;;32.92;14.55;;;7.00;86.20;;;;;;5102220;22;20447;-70
2021/04/05 05:27:10;;;;;;;33.33;15.90;;;7.00;86.80;;;;;;5081774;22;20071;-71
2021/04/05 05:29:36;;;;;;;33.80;15.77;;;7.00;86.80;;;;;;5103000;22;20074;-71
2021/04/05 05:34:29;;;;;;;38.67;15.85;;;7.00;87.60;;;;;;5123772;22;20044;-72
2021/04/05 05:36:55;;;;;;;29.83;16.10;;;7.10;87.80;;;;;;5101581;22;20135;-72
2021/04/05 05:39:21;;;;;;;49.28;23.23;;;7.10;87.70;;;;;;5102065;22;20064;-71
2021/04/05 05:42:16;;;;;;;34.17;16.13;;;7.10;88.10;;;;;;5096077;23;20059;-73
2021/04/05 05:45:05;;;;;;;32.78;16.80;;;7.10;88.50;;;;;;5093375;28;20035;-72
2021/04/05 05:47:58;;;;;;;;;;;;;;;;;;;;;
2021/04/05 05:53:16;;;;;;;36.28;16.33;;;7.10;89.00;;;;;;5102518;22;20048;-73
2021/04/05 05:56:13;;;;;;;34.58;16.85;;;7.10;89.00;;;;;;5095184;22;20109;-74
2021/04/05 06:01:38;;;;;;;33.42;17.45;;;7.10;89.20;;;;;;5123003;22;20047;-75
2021/04/05 06:04:15;;;;;;;37.42;15.68;;;7.10;89.00;;;;;;5096692;28;20032;-76
2021/04/05 06:11:59;;;;;;;39.15;16.63;;;7.20;89.30;;;;;;5116814;22;20044;-75
2021/04/05 06:14:52;;;;;;;32.10;16.67;;;7.20;89.00;;;;;;5096880;28;20093;-79
2021/04/05 06:17:37;;;;;;;29.55;16.98;;;7.20;88.80;;;;;;5100124;22;20079;-75
2021/04/05 06:22:59;;;;;;;31.08;16.83;;;7.20;88.80;;;;;;5102619;22;20044;-73
2021/04/05 06:28:28;;;;;;;40.03;17.63;;;7.20;88.80;;;;;;5114991;22;20484;-73
2021/04/05 06:33:22;;;;;;;30.75;17.20;;;7.30;89.00;;;;;;5102742;22;20582;-75
2021/04/05 06:36:12;;;;;;;28.98;17.20;;;7.40;88.90;;;;;;5095524;22;20060;-74
2021/04/05 06:41:37;;;;;;;36.58;18.05;;;7.50;88.20;;;;;;5120225;22;20403;-70
2021/04/05 06:44:15;;;;;;;32.92;17.15;;;7.60;88.20;;;;;;5080378;22;20082;-70
2021/04/05 06:46:53;;;;;;;37.35;16.83;;;7.60;88.20;;;;;;5100413;22;20051;-72
2021/04/05 06:52:00;;;;;;;37.05;18.48;;;7.60;88.30;;;;;;5103018;22;20044;-81
2021/04/05 06:54:35;;;;;;;31.60;18.20;;;7.60;88.90;;;;;;5092883;28;20044;-72
2021/04/05 06:57:11;;;;;;;45.38;18.15;;;7.70;88.10;;;;;;5093010;28;20040;-73
2021/04/05 07:00:06;;;;;;;33.47;17.92;;;7.80;88.10;;;;;;5101368;22;20044;-74
2021/04/05 07:02:59;;;;;;;34.58;18.25;;;7.90;88.00;;;;;;5080740;23;20052;-74
2021/04/05 07:05:33;;;;;;;37.13;18.17;;;8.00;87.70;;;;;;5102243;22;20060;-76
2021/04/05 07:08:26;;;;;;;33.50;16.85;;;8.10;87.40;;;;;;5100593;22;20072;-74
2021/04/05 07:13:48;;;;;;;30.05;17.48;;;8.10;87.40;;;;;;5099533;22;20109;-69
2021/04/05 07:16:17;;;;;;;32.85;17.20;;;8.20;87.20;;;;;;5100664;22;20181;-75
2021/04/05 07:19:07;;;;;;;31.50;16.05;;;8.30;86.70;;;;;;5093023;28;20117;-73
2021/04/05 07:22:11;;;;;;;33.85;16.10;;;8.40;86.30;;;;;;5100493;22;20579;-75
2021/04/05 07:24:54;;;;;;;41.08;17.33;;;8.60;85.80;;;;;;5101482;22;20053;-74
2021/04/05 07:27:33;;;;;;;39.10;17.25;;;8.70;85.30;;;;;;5100798;22;20508;-77
2021/04/05 07:30:10;;;;;;;31.83;16.02;;;8.80;84.70;;;;;;5080567;23;20045;-77
2021/04/05 07:32:45;;;;;;;28.23;15.48;;;8.80;84.50;;;;;;5101043;22;20083;-74
2021/04/05 07:35:35;;;;;;;31.40;15.20;;;8.90;84.00;;;;;;5100324;22;20056;-70
2021/04/05 07:38:22;;;;;;;39.38;17.02;;;9.00;83.50;;;;;;5118678;22;20101;-72
2021/04/05 07:46:27;;;;;;;31.08;14.85;;;9.30;81.90;;;;;;5122508;22;20530;-67
2021/04/05 07:49:17;;;;;;;25.05;13.52;;;9.40;81.40;;;;;;5100260;22;20048;-70
2021/04/05 07:54:17;;;;;;;24.75;14.90;;;9.70;79.70;;;;;;5122138;22;20074;-64
2021/04/05 07:57:06;;;;;;;27.58;14.07;;;9.80;79.50;;;;;;5100388;22;20058;-65
2021/04/05 07:59:53;;;;;;;24.40;13.13;;;10.10;78.60;;;;;;5122205;22;20067;-64
2021/04/05 08:02:37;;;;;;;32.00;13.20;;;10.30;77.30;;;;;;5100355;22;20052;-64
2021/04/05 08:05:31;;;;;;;23.05;12.63;;;10.40;76.70;;;;;;5088739;28;20040;-66
2021/04/05 08:10:41;;;;;;;26.63;12.50;;;10.40;76.80;;;;;;5064377;22;20120;-65
2021/04/05 08:13:29;;;;;;;30.75;12.93;;;10.50;76.20;;;;;;5104851;22;20059;-66
2021/04/05 08:16:05;;;;;;;28.38;12.05;;;10.70;76.40;;;;;;5102855;22;20535;-66
2021/04/05 08:21:24;;;;;;;25.33;11.82;;;11.00;74.40;;;;;;5105073;22;20055;-66
2021/04/05 08:24:16;;;;;;;28.88;12.57;;;11.00;74.10;;;;;;5104303;22;20512;-66
2021/04/05 08:26:48;;;;;;;25.40;11.40;;;11.10;74.00;;;;;;5102718;22;20146;-66
2021/04/05 08:29:38;;;;;;;26.35;11.88;;;11.30;72.40;;;;;;5095615;28;20089;-66
2021/04/05 08:32:22;;;;;;;23.77;11.27;;;11.50;71.90;;;;;;5082477;22;20072;-65
2021/04/05 08:37:32;;;;;;;25.98;11.73;;;11.50;71.20;;;;;;5101812;22;20055;-65
2021/04/05 08:40:24;;;;;;;32.78;11.85;;;11.60;70.80;;;;;;5104092;22;20134;-66
2021/04/05 08:43:21;;;;;;;26.52;11.73;;;11.60;70.50;;;;;;5102671;22;20143;-65
2021/04/05 08:46:06;;;;;;;25.75;11.30;;;11.80;69.90;;;;;;5082667;23;20048;-65
2021/04/05 08:48:36;;;;;;;21.42;11.98;;;11.80;70.00;;;;;;5102398;22;20416;-65
2021/04/05 08:55:59;;;;;;;24.13;11.30;;;11.90;69.50;;;;;;5103731;22;20062;-65
2021/04/05 08:58:33;;;;;;;26.90;11.70;;;12.00;69.60;;;;;;5104461;22;20381;-66
2021/04/05 09:01:03;;;;;;;26.65;11.80;;;12.20;69.00;;;;;;5102525;22;20048;-65
2021/04/05 09:03:32;;;;;;;24.00;10.93;;;12.00;69.80;;;;;;5082234;22;20492;-67
2021/04/05 09:08:27;;;;;;;24.48;10.75;;;12.40;68.90;;;;;;5071751;22;925290;-65
2021/04/05 09:11:02;;;;;;;24.67;11.07;;;12.30;69.10;;;;;;5091836;22;20539;-65
2021/04/05 09:13:32;;;;;;;25.48;9.98;;;12.30;68.90;;;;;;5102032;22;20059;-65
2021/04/05 09:16:35;;;;;;;22.58;10.07;;;12.30;67.90;;;;;;5102795;22;20048;-66
2021/04/05 09:22:10;;;;;;;26.92;10.48;;;12.80;67.50;;;;;;5104026;22;20044;-66
2021/04/05 09:24:57;;;;;;;23.48;10.52;;;13.00;67.10;;;;;;5087189;23;20056;-66
2021/04/05 09:28:01;;;;;;;24.20;9.57;;;13.00;67.40;;;;;;5101110;22;20063;-65
2021/04/05 09:30:50;;;;;;;22.77;10.18;;;13.00;67.10;;;;;;5094795;28;20061;-67
2021/04/05 09:33:46;;;;;;;22.40;9.52;;;13.10;67.30;;;;;;5042734;23;20061;-71
2021/04/05 09:39:34;;;;;;;26.52;10.07;;;13.10;67.40;;;;;;5102467;22;20146;-69
2021/04/05 09:42:27;;;;;;;23.67;9.88;;;13.30;68.10;;;;;;5077227;28;20039;-71
2021/04/05 09:45:14;;;;;;;24.40;9.55;;;13.30;68.00;;;;;;5081240;22;20147;-70
2021/04/05 09:47:47;;;;;;;20.35;9.50;;;13.50;65.70;;;;;;5072854;28;20216;-74
2021/04/05 09:50:25;;;;;;;25.30;9.95;;;13.60;65.90;;;;;;5073400;28;20043;-68
2021/04/05 09:53:14;;;;;;;22.92;9.88;;;13.50;65.50;;;;;;5081081;22;20094;-70
2021/04/05 09:55:54;;;;;;;24.55;10.32;;;13.30;66.20;;;;;;5072961;28;20048;-72
2021/04/05 09:58:41;;;;;;;22.63;9.98;;;13.20;67.30;;;;;;5080959;22;20139;-71
2021/04/05 10:01:15;;;;;;;20.23;9.95;;;13.50;66.80;;;;;;5080826;22;20052;-73
2021/04/05 10:03:43;;;;;;;;;;;13.60;65.00;;;;;;5073475;28;20497;-71
2021/04/05 10:06:13;;;;;;;25.98;9.00;;;13.60;64.50;;;;;;5073526;28;19908;-71
2021/04/05 10:18:37;;;;;;;;;;;;;;;;;;;;;
2021/04/05 10:20:54;;;;;;;27.58;10.07;;;13.60;64.60;;;;;;5102693;22;20054;-73
2021/04/05 10:25:59;;;;;;;21.30;8.30;;;13.90;64.90;;;;;;5121359;22;20059;-72
2021/04/05 10:46:12;;;;;;;16.98;6.78;;;14.00;63.60;;;;;;5102466;22;20463;-72
2021/04/05 10:48:42;;;;;;;19.10;7.15;;;13.70;63.30;;;;;;5080721;22;20055;-71
2021/04/05 10:51:19;;;;;;;25.08;7.63;;;13.70;64.90;;;;;;5080097;22;20072;-72
2021/04/05 10:53:51;;;;;;;20.48;7.28;;;13.80;65.40;;;;;;5072696;28;20036;-73
2021/04/05 10:56:19;;;;;;;25.88;8.40;;;13.80;64.70;;;;;;5083136;23;20052;-73
2021/04/05 11:01:20;;;;;;;24.10;7.83;;;13.90;63.70;;;;;;5101899;22;20087;-72
2021/04/05 11:03:49;;;;;;;16.90;6.80;;;14.00;63.50;;;;;;5075808;28;20480;-76
2021/04/05 11:06:17;;;;;;;20.23;7.20;;;14.10;62.80;;;;;;5075846;28;20067;-72
2021/04/05 11:08:47;;;;;;;17.27;7.00;;;14.10;62.50;;;;;;5083657;22;20052;-73
2021/04/05 11:26:14;;;;;;;20.23;6.45;;;14.00;63.80;;;;;;5101350;22;20044;-73
2021/04/05 11:28:41;;;;;;;18.55;6.53;;;14.00;63.10;;;;;;5083428;22;20056;-73
2021/04/05 11:31:19;;;;;;;17.58;6.13;;;13.90;62.90;;;;;;5075990;28;20036;-72
2021/04/05 11:41:17;;;;;;;21.58;5.47;;;13.90;61.20;;;;;;5101063;22;20052;-73
2021/04/05 11:43:49;;;;;;;20.17;4.95;;;13.90;62.20;;;;;;5083063;22;20048;-72
2021/04/05 11:46:16;;;;;;;15.98;5.30;;;14.20;61.20;;;;;;5084640;22;20102;-72
2021/04/05 11:56:26;;;;;;;17.17;5.10;;;14.40;61.20;;;;;;5104826;22;20048;-73
2021/04/05 11:59:01;;;;;;;18.60;5.07;;;14.40;61.30;;;;;;5104474;22;20062;-72
2021/04/05 12:17:11;;;;;;;22.65;6.10;;;14.90;60.00;;;;;;5104994;22;20080;-72
2021/04/05 12:22:08;;;;;;;24.38;6.45;;;14.50;61.30;;;;;;5121735;22;20079;-72
2021/04/05 12:24:55;;;;;;;19.48;6.10;;;14.60;61.20;;;;;;5104947;22;20051;-74
2021/04/05 12:32:31;;;;;;;20.50;6.88;;;14.40;62.40;;;;;;5117084;22;20138;-74
2021/04/05 12:35:00;;;;;;;23.70;8.02;;;14.60;61.30;;;;;;5098940;22;20075;-72
2021/04/05 12:39:55;;;;;;;21.55;6.13;;;14.40;62.30;;;;;;5084789;22;20086;-72
2021/04/05 12:50:00;;;;;;;20.17;6.68;;;14.40;61.20;;;;;;5104311;22;20470;-72
2021/04/05 12:55:00;;;;;;;18.33;6.63;;;14.30;61.70;;;;;;5045258;22;20211;-70
2021/04/05 12:59:55;;;;;;;21.15;6.40;;;14.40;60.70;;;;;;5064946;22;20409;-71
2021/04/05 13:02:23;;;;;;;18.55;7.10;;;14.20;61.00;;;;;;5038631;28;20041;-71
2021/04/05 13:07:45;;;;;;;17.58;6.75;;;14.60;61.00;;;;;;5062283;22;20097;-71
2021/04/05 13:15:31;;;;;;;17.48;6.68;;;14.30;61.00;;;;;;5064565;22;20065;-75
2021/04/05 13:18:00;;;;;;;;;;;14.20;60.60;;;;;;5038087;28;20090;-69
2021/04/05 13:25:32;;;;;;;20.90;7.00;;;14.20;61.70;;;;;;5123230;22;20066;-70
2021/04/05 13:28:00;;;;;;;20.87;6.57;;;14.40;61.10;;;;;;5102284;22;20083;-66
2021/04/05 13:32:57;;;;;;;18.95;6.00;;;14.40;61.20;;;;;;5123611;22;20051;-69
2021/04/05 13:35:26;;;;;;;22.05;6.63;;;14.70;60.50;;;;;;5094733;22;20056;-73
2021/04/05 13:42:51;;;;;;;23.95;6.78;;;14.50;60.30;;;;;;5126204;22;20154;-72
2021/04/05 13:45:18;;;;;;;19.05;6.75;;;14.60;60.40;;;;;;5119909;22;20060;-71
2021/04/05 13:47:50;;;;;;;18.17;6.57;;;15.00;59.60;;;;;;5065465;22;20071;-73
2021/04/05 13:50:18;;;;;;;21.88;6.45;;;15.00;59.80;;;;;;5076526;22;20081;-73
2021/04/05 13:55:25;;;;;;;20.45;6.78;;;15.10;59.40;;;;;;5082592;23;20048;-69
2021/04/05 14:00:23;;;;;;;26.77;13.68;;;15.10;59.00;;;;;;5102262;22;20086;-71
2021/04/05 14:12:49;;;;;;;19.15;6.85;;;14.50;60.60;;;;;;5122793;22;20516;-70
2021/04/05 14:25:57;;;;;;;26.13;6.10;;;15.40;57.40;;;;;;5122405;22;20210;-71
2021/04/05 14:28:33;;;;;;;17.48;6.47;;;14.80;58.90;;;;;;5099216;22;20093;-71
2021/04/05 14:31:17;;;;;;;17.58;6.28;;;14.90;59.20;;;;;;5103370;22;20128;-71
2021/04/05 14:51:07;;;;;;;17.92;5.95;;;14.80;59.50;;;;;;5121633;22;20154;-70
2021/04/05 14:53:40;;;;;;;17.92;5.72;;;15.00;57.80;;;;;;5099507;22;20155;-70
2021/04/05 14:58:39;;;;;;;20.17;5.88;;;14.90;58.00;;;;;;5121579;22;20108;-71
2021/04/05 15:01:14;;;;;;;15.13;5.70;;;14.70;58.40;;;;;;5095626;28;20031;-70
2021/04/05 15:28:37;;;;;;;18.13;6.35;;;14.80;60.70;;;;;;5104250;22;20052;-71
2021/04/05 15:31:05;;;;;;;15.85;6.72;;;14.80;60.40;;;;;;5078868;28;20086;-67
2021/04/05 15:33:40;;;;;;;16.13;6.13;;;14.60;61.80;;;;;;5079376;28;20036;-68
2021/04/05 15:41:05;;;;;;;14.18;5.95;;;14.60;61.40;;;;;;5125056;22;20059;-69
2021/04/05 15:43:40;;;;;;;16.02;5.88;;;14.60;61.80;;;;;;5103034;22;20079;-71
2021/04/05 15:46:21;;;;;;;12.68;5.50;;;14.70;60.80;;;;;;5124739;22;20094;-70
2021/04/05 15:51:24;;;;;;;16.20;5.30;;;14.60;62.10;;;;;;5124792;22;20052;-72
2021/04/05 15:53:57;;;;;;;17.15;6.45;;;14.60;61.20;;;;;;5103323;22;20505;-74
2021/04/05 15:56:37;;;;;;;18.23;6.22;;;14.50;62.10;;;;;;5124926;22;20055;-71
2021/04/05 15:59:12;;;;;;;14.95;6.20;;;14.50;63.00;;;;;;5102780;22;20056;-73
2021/04/05 16:01:58;;;;;;;17.38;5.97;;;14.60;62.80;;;;;;5095338;22;20091;-71
2021/04/05 16:04:37;;;;;;;12.32;5.20;;;14.40;63.60;;;;;;5028089;23;20115;-72
2021/04/05 16:07:15;;;;;;;11.27;5.63;;;14.50;63.30;;;;;;5019148;28;20125;-72
2021/04/05 16:09:50;;;;;;;16.15;6.03;;;14.70;63.00;;;;;;5085101;23;20150;-72
2021/04/05 16:12:38;;;;;;;24.02;6.15;;;14.70;63.40;;;;;;5124143;22;20130;-72
2021/04/05 16:15:24;;;;;;;;;;;;;;;;;;;;;
2021/04/05 16:17:54;;;;;;;19.98;6.40;;;14.70;63.10;;;;;;5103912;22;20055;-77
2021/04/05 16:20:25;;;;;;;15.30;6.15;;;14.60;63.50;;;;;;5102664;23;20056;-76
2021/04/05 16:25:35;;;;;;;14.13;5.40;;;14.90;62.80;;;;;;5124164;22;20138;-73
2021/04/05 16:28:04;;;;;;;16.15;5.50;;;14.80;62.70;;;;;;5097788;28;20088;-73
2021/04/05 16:30:34;;;;;;;15.10;5.88;;;14.50;64.30;;;;;;5082011;23;20143;-74
2021/04/05 16:33:27;;;;;;;16.55;5.45;;;14.50;63.30;;;;;;5083809;22;20059;-74
2021/04/05 16:41:12;;;;;;;18.15;5.82;;;14.20;65.90;;;;;;5104510;22;20146;-75
2021/04/05 16:43:52;;;;;;;18.55;6.43;;;14.20;66.20;;;;;;5095334;28;20541;-74
2021/04/05 16:46:20;;;;;;;16.77;5.55;;;14.10;65.90;;;;;;5095317;28;20082;-73
2021/04/05 16:49:10;;;;;;;15.32;5.38;;;14.00;66.60;;;;;;5095755;28;20116;-78
2021/04/05 16:51:42;;;;;;;15.52;5.38;;;13.90;66.90;;;;;;5095335;28;20032;-76
2021/04/05 16:54:09;;;;;;;17.15;6.15;;;13.70;67.30;;;;;;5094969;28;20039;-76
2021/04/05 16:56:37;;;;;;;18.55;5.97;;;13.70;67.50;;;;;;5095205;28;20040;-80
2021/04/05 16:59:12;;;;;;;23.67;6.90;;;13.60;67.80;;;;;;5095293;28;20043;-82
2021/04/05 17:06:56;;;;;;;;;;;13.50;68.50;;;;;;5104015;22;20497;-79
2021/04/05 17:12:10;;;;;;;20.10;6.47;;;13.30;68.70;;;;;;5103256;22;20048;-77
2021/04/05 17:14:45;;;;;;;20.30;5.90;;;13.30;69.10;;;;;;5102059;22;20056;-78
2021/04/05 17:17:11;;;;;;;16.13;5.95;;;13.20;69.90;;;;;;5103768;22;20039;-79
2021/04/05 17:48:17;;;;;;;12.55;5.47;;;13.60;59.80;;;;;;5103556;22;20056;-71
2021/04/05 17:50:55;;;;;;;14.10;5.38;;;13.60;59.90;;;;;;5093886;28;20113;-71
2021/04/05 17:56:11;;;;;;;11.52;6.10;;;13.40;60.00;;;;;;5102473;22;20059;-72
2021/04/05 17:59:04;;;;;;;14.10;4.95;;;13.30;60.60;;;;;;5102688;22;20044;-72
2021/04/05 18:02:05;;;;;;;12.73;4.88;;;13.20;60.80;;;;;;5101266;22;20104;-71
2021/04/05 18:04:39;;;;;;;11.05;5.25;;;13.10;60.90;;;;;;5101254;22;20052;-73
2021/04/05 18:07:08;;;;;;;18.15;5.68;;;13.00;61.30;;;;;;5094494;28;20035;-71
2021/04/05 18:15:05;;;;;;;16.20;5.88;;;13.00;62.40;;;;;;5103158;22;20047;-73
2021/04/05 18:18:13;;;;;;;12.35;5.65;;;12.90;62.50;;;;;;5095385;22;20056;-70
2021/04/05 18:23:21;;;;;;;12.43;5.60;;;12.90;62.80;;;;;;5121273;22;20056;-71
2021/04/05 18:28:50;;;;;;;11.60;5.70;;;12.90;63.60;;;;;;5122066;22;20051;-67
2021/04/05 18:31:36;;;;;;;12.98;5.30;;;12.90;64.10;;;;;;5100364;22;20059;-67
2021/04/05 18:39:33;;;;;;;17.55;5.50;;;12.90;64.10;;;;;;5114224;22;20059;-65
2021/04/05 18:42:01;;;;;;;12.63;6.05;;;12.80;64.50;;;;;;5080174;22;20053;-68
2021/04/05 18:44:27;;;;;;;12.88;5.40;;;12.80;65.10;;;;;;5100761;22;20044;-67
2021/04/05 18:49:35;;;;;;;10.15;4.68;;;12.70;65.70;;;;;;5098936;22;20377;-67
2021/04/05 18:52:07;;;;;;;20.88;5.90;;;12.70;65.90;;;;;;5092939;28;20422;-67
2021/04/05 18:57:13;;;;;;;18.80;5.85;;;12.70;66.40;;;;;;5102650;22;20079;-67
2021/04/05 18:59:49;;;;;;;15.35;5.47;;;12.70;66.60;;;;;;5100069;22;20062;-67
2021/04/05 19:02:16;;;;;;;17.20;5.53;;;12.70;66.50;;;;;;5100449;22;20105;-67
2021/04/05 19:04:46;;;;;;;15.65;4.82;;;12.70;66.60;;;;;;5101811;22;20044;-67
2021/04/05 19:07:54;;;;;;;18.58;5.28;;;12.60;66.60;;;;;;5100197;22;20078;-67
2021/04/05 19:10:28;;;;;;;15.18;5.40;;;12.60;66.60;;;;;;5070447;22;20055;-67
2021/04/05 19:13:18;;;;;;;14.98;5.55;;;12.50;66.30;;;;;;5101491;22;20040;-68
2021/04/05 19:27:18;;;;;;;13.52;4.13;;;12.30;65.70;;;;;;5101065;22;20508;-66
2021/04/05 19:30:05;;;;;;;12.32;5.25;;;12.30;65.70;;;;;;5100254;22;20523;-68
2021/04/05 19:32:45;;;;;;;15.60;5.20;;;12.20;65.90;;;;;;5099623;22;20055;-66
2021/04/05 19:38:18;;;;;;;15.30;5.35;;;12.10;66.40;;;;;;5101363;22;20044;-66
2021/04/05 19:41:13;;;;;;;17.65;5.00;;;12.10;66.70;;;;;;5100638;22;20138;-66
2021/04/05 19:43:57;;;;;;;12.02;4.90;;;12.10;67.10;;;;;;5100635;22;20052;-71
2021/04/05 19:49:13;;;;;;;14.15;5.28;;;12.00;67.80;;;;;;5099217;22;20101;-66
2021/04/05 19:51:43;;;;;;;13.90;5.18;;;12.00;68.10;;;;;;5099783;22;20143;-66
2021/04/05 19:54:47;;;;;;;11.93;4.50;;;12.00;68.20;;;;;;5099715;22;20047;-67
2021/04/05 19:57:32;;;;;;;12.65;5.35;;;12.00;67.70;;;;;;5100216;22;20079;-67
2021/04/05 20:00:03;;;;;;;15.23;5.47;;;11.90;67.90;;;;;;5099948;22;20056;-67
2021/04/05 20:02:38;;;;;;;11.02;4.43;;;11.90;68.30;;;;;;5099963;22;20061;-67
2021/04/05 20:10:29;;;;;;;13.02;5.75;;;11.90;69.50;;;;;;5104118;22;20561;-66
2021/04/05 20:15:47;;;;;;;14.60;5.47;;;11.80;69.90;;;;;;5043725;23;20088;-66
2021/04/05 20:23:19;;;;;;;13.77;5.43;;;11.70;69.70;;;;;;5084364;22;20516;-67
2021/04/05 20:28:39;;;;;;;11.43;4.30;;;11.80;69.60;;;;;;5104786;22;20051;-66
2021/04/05 20:31:14;;;;;;;11.90;4.70;;;11.80;69.40;;;;;;5100444;22;20059;-67
2021/04/05 20:33:48;;;;;;;14.38;4.55;;;11.70;69.50;;;;;;5083816;23;20044;-67
2021/04/05 20:39:10;;;;;;;14.93;4.60;;;11.70;69.70;;;;;;5105300;22;20048;-66
2021/04/05 21:04:46;;;;;;;12.00;3.83;;;11.30;70.60;;;;;;5104443;22;20052;-70
2021/04/05 21:07:14;;;;;;;11.98;4.60;;;11.20;70.80;;;;;;5102517;22;20044;-71
2021/04/05 21:09:40;;;;;;;13.73;4.57;;;11.10;71.20;;;;;;5103718;22;20044;-71
2021/04/05 21:32:51;;;;;;;10.65;3.60;;;10.90;63.80;;;;;;5104121;22;20048;-69
2021/04/05 21:35:40;;;;;;;8.38;2.58;;;10.90;61.00;;;;;;5102154;22;20442;-68
2021/04/05 21:46:14;;;;;;;13.23;3.25;;;10.70;58.00;;;;;;5123293;22;20050;-69
2021/04/05 21:48:42;;;;;;;11.80;3.28;;;10.70;56.30;;;;;;5102120;22;20142;-71
2021/04/05 21:51:09;;;;;;;13.02;2.88;;;10.70;55.00;;;;;;5094235;28;20036;-68
2021/04/05 21:53:39;;;;;;;8.75;2.50;;;10.70;54.50;;;;;;5101452;22;20052;-69
2021/04/05 21:56:09;;;;;;;8.95;2.45;;;10.70;53.90;;;;;;5100806;22;20419;-69
2021/04/05 21:58:42;;;;;;;7.45;3.03;;;10.60;53.40;;;;;;5081420;22;20056;-68
2021/04/05 22:01:19;;;;;;;10.77;2.97;;;10.60;52.90;;;;;;5084299;22;20044;-69
2021/04/05 22:11:18;;;;;;;10.33;3.33;;;10.50;53.90;;;;;;5094966;22;1045542;-71
2021/04/05 22:13:57;;;;;;;10.68;2.97;;;10.50;53.70;;;;;;5103481;22;20079;-69
2021/04/05 22:26:25;;;;;;;9.18;2.90;;;10.30;53.60;;;;;;5082802;22;20045;-70
2021/04/05 22:29:03;;;;;;;12.18;4.15;;;10.30;53.60;;;;;;5061948;23;20057;-69
2021/04/05 22:31:31;;;;;;;8.55;2.53;;;10.30;53.70;;;;;;5099433;22;20055;-70
2021/04/05 22:44:39;;;;;;;8.02;2.90;;;10.30;54.10;;;;;;5121965;22;20101;-71
2021/04/05 22:47:07;;;;;;;7.43;2.60;;;10.20;54.00;;;;;;5104844;22;20063;-71
2021/04/05 22:49:45;;;;;;;10.45;2.95;;;10.30;54.30;;;;;;5100886;22;20063;-70